Time;durP1;ratioP1;P1;durP2;ratioP2;P2;SDS_P1;SDS_P2;PMS_P1;PMS_P2;Temp;Humidity;BMP_temperature;BMP_pressure;BME280_temperature;BME280_humidity;BME280_pressure;Samples;Min_cycle;Max_cycle;Signal;HPM_P1;HPM_P2
2022/03/12 00:00:00;;;;;;;2.47;1.70;;;;;;;;;;5086992;28;20394;-70
2022/03/12 00:02:29;;;;;;;3.22;0.98;;;;;;;;;;5086549;28;20032;-69
2022/03/12 00:04:58;;;;;;;0.60;0.60;;;;;;;;;;5076493;28;20028;-72
2022/03/12 00:07:25;;;;;;;1.23;1.13;;;;;;;;;;5086842;28;20032;-71
2022/03/12 00:09:51;;;;;;;1.67;1.58;;;;;;;;;;5076058;28;20036;-70
2022/03/12 00:12:19;;;;;;;1.02;1.00;;;;;;;;;;5087222;28;20470;-69
2022/03/12 00:14:46;;;;;;;1.88;1.77;;;;;;;;;;5087004;28;20024;-69
2022/03/12 00:17:12;;;;;;;0.20;0.20;;;;;;;;;;5074420;28;20101;-69
2022/03/12 00:19:41;;;;;;;0.40;0.40;;;;;;;;;;5082362;28;20592;-70
2022/03/12 00:22:08;;;;;;;4.82;2.70;;;;;;;;;;5089995;28;20776;-69
2022/03/12 00:24:34;;;;;;;0.35;0.35;;;;;;;;;;5089836;28;20032;-69
2022/03/12 00:27:01;;;;;;;1.20;1.13;;;;;;;;;;5083653;28;20513;-69
2022/03/12 00:29:27;;;;;;;1.60;1.23;;;;;;;;;;5080284;28;20016;-69
2022/03/12 00:31:54;;;;;;;2.20;0.55;;;;;;;;;;5092301;28;20086;-69
2022/03/12 00:34:20;;;;;;;2.47;0.45;;;;;;;;;;5085463;28;20078;-69
2022/03/12 00:36:45;;;;;;;0.75;0.75;;;;;;;;;;5088817;28;20433;-69
2022/03/12 00:39:12;;;;;;;0.30;0.30;;;;;;;;;;5083432;28;20063;-69
2022/03/12 00:41:38;;;;;;;0.28;0.28;;;;;;;;;;5092181;28;20028;-69
2022/03/12 00:44:05;;;;;;;1.17;1.05;;;;;;;;;;5091036;28;20073;-70
2022/03/12 00:46:31;;;;;;;1.58;1.48;;;;;;;;;;5087470;28;20070;-69
2022/03/12 00:48:57;;;;;;;0.73;0.73;;;;;;;;;;5077636;28;20028;-69
2022/03/12 00:51:23;;;;;;;0.73;0.73;;;;;;;;;;5074160;28;20049;-69
2022/03/12 00:53:49;;;;;;;8.25;2.13;;;;;;;;;;5084288;28;20100;-69
2022/03/12 00:56:15;;;;;;;0.30;0.30;;;;;;;;;;5089151;28;20103;-69
2022/03/12 00:58:45;;;;;;;2.25;1.25;;;;;;;;;;5079615;28;20056;-69
2022/03/12 01:01:12;;;;;;;2.75;1.08;;;;;;;;;;5077992;28;20036;-69
2022/03/12 01:03:38;;;;;;;1.55;1.27;;;;;;;;;;5091813;28;20024;-69
2022/03/12 01:06:05;;;;;;;2.13;1.92;;;;;;;;;;5074368;28;20530;-69
2022/03/12 01:08:32;;;;;;;1.00;0.52;;;;;;;;;;5073212;28;20602;-69
2022/03/12 01:11:00;;;;;;;1.15;0.88;;;;;;;;;;5088666;28;20035;-69
2022/03/12 01:13:28;;;;;;;0.57;0.57;;;;;;;;;;5076222;28;20032;-69
2022/03/12 01:15:54;;;;;;;5.75;0.77;;;;;;;;;;5093741;28;20050;-69
2022/03/12 01:18:20;;;;;;;0.40;0.40;;;;;;;;;;5080800;28;20067;-69
2022/03/12 01:20:47;;;;;;;0.52;0.52;;;;;;;;;;5079973;28;20112;-69
2022/03/12 01:23:14;;;;;;;0.55;0.50;;;;;;;;;;5080306;28;20036;-69
2022/03/12 01:25:41;;;;;;;0.50;0.50;;;;;;;;;;5085140;28;20028;-70
2022/03/12 01:28:08;;;;;;;4.78;1.48;;;;;;;;;;5077850;28;20111;-69
2022/03/12 01:30:34;;;;;;;1.17;1.08;;;;;;;;;;5079415;28;20394;-69
2022/03/12 01:33:00;;;;;;;0.77;0.77;;;;;;;;;;5092069;28;20020;-69
2022/03/12 01:35:26;;;;;;;0.63;0.63;;;;;;;;;;5078073;28;20082;-69
2022/03/12 01:37:53;;;;;;;2.17;1.15;;;;;;;;;;5079605;28;20052;-69
2022/03/12 01:40:19;;;;;;;3.63;1.65;;;;;;;;;;5090120;28;20020;-69
2022/03/12 01:42:45;;;;;;;1.27;0.95;;;;;;;;;;5090945;28;20024;-69
2022/03/12 01:45:13;;;;;;;0.80;0.75;;;;;;;;;;5089274;28;20096;-69
2022/03/12 01:47:40;;;;;;;12.00;1.80;;;;;;;;;;5077224;28;20016;-69
2022/03/12 01:50:06;;;;;;;1.15;1.05;;;;;;;;;;5095348;28;20189;-69
2022/03/12 01:52:32;;;;;;;0.55;0.55;;;;;;;;;;5082458;28;20023;-69
2022/03/12 01:54:58;;;;;;;23.80;1.20;;;;;;;;;;5090329;28;20024;-69
2022/03/12 01:57:24;;;;;;;1.77;1.25;;;;;;;;;;5085353;28;20383;-69
2022/03/12 01:59:51;;;;;;;0.57;0.57;;;;;;;;;;5089380;28;20134;-69
2022/03/12 02:02:17;;;;;;;0.50;0.50;;;;;;;;;;5086826;28;20032;-69
2022/03/12 02:04:49;;;;;;;2.22;1.85;;;;;;;;;;5087601;28;20029;-69
2022/03/12 02:07:16;;;;;;;2.55;1.08;;;;;;;;;;5082066;28;20060;-69
2022/03/12 02:09:42;;;;;;;0.35;0.35;;;;;;;;;;5090406;28;20028;-69
2022/03/12 02:12:08;;;;;;;1.00;1.00;;;;;;;;;;5091512;28;20027;-69
2022/03/12 02:14:36;;;;;;;5.15;0.95;;;;;;;;;;5084543;28;20029;-69
2022/03/12 02:17:04;;;;;;;1.83;0.75;;;;;;;;;;5087852;28;20028;-69
2022/03/12 02:19:31;;;;;;;0.77;0.77;;;;;;;;;;5080655;28;20079;-69
2022/03/12 02:22:02;;;;;;;0.60;0.60;;;;;;;;;;5083697;28;20382;-70
2022/03/12 02:24:29;;;;;;;0.38;0.38;;;;;;;;;;5090829;28;20050;-69
2022/03/12 02:26:56;;;;;;;5.38;1.98;;;;;;;;;;5085765;28;20063;-70
2022/03/12 02:29:23;;;;;;;1.58;1.48;;;;;;;;;;5078184;28;20036;-69
2022/03/12 02:31:55;;;;;;;6.05;1.48;;;;;;;;;;5083633;28;20031;-69
2022/03/12 02:34:23;;;;;;;2.83;1.75;;;;;;;;;;5080746;28;20085;-69
2022/03/12 02:36:56;;;;;;;4.60;1.08;;;;;;;;;;5076515;28;20027;-69
2022/03/12 02:39:22;;;;;;;4.15;2.92;;;;;;;;;;5080847;28;20028;-69
2022/03/12 02:41:49;;;;;;;0.40;0.40;;;;;;;;;;5082697;28;20643;-69
2022/03/12 02:44:20;;;;;;;0.20;0.20;;;;;;;;;;5087538;28;20115;-69
2022/03/12 02:47:06;;;;;;;2.55;2.33;;;;;;;;;;5082293;28;20032;-69
2022/03/12 02:49:37;;;;;;;1.50;1.40;;;;;;;;;;5087354;28;20035;-69
2022/03/12 02:52:03;;;;;;;;;;;;;;;;;;5080203;28;20054;-70
2022/03/12 02:54:29;;;;;;;1.27;1.13;;;;;;;;;;5085992;28;20580;-69
2022/03/12 02:56:56;;;;;;;0.43;0.43;;;;;;;;;;5078596;28;20028;-70
2022/03/12 02:59:21;;;;;;;1.45;1.23;;;;;;;;;;5087382;28;20035;-70
2022/03/12 03:01:48;;;;;;;1.50;1.40;;;;;;;;;;5084672;28;20020;-70
2022/03/12 03:04:14;;;;;;;0.57;0.45;;;;;;;;;;5083872;28;20032;-70
2022/03/12 03:06:41;;;;;;;0.73;0.73;;;;;;;;;;5083483;28;20048;-70
2022/03/12 03:09:08;;;;;;;1.27;0.95;;;;;;;;;;5087133;28;20044;-70
2022/03/12 03:11:35;;;;;;;3.05;1.75;;;;;;;;;;5080049;28;20035;-71
2022/03/12 03:14:01;;;;;;;1.90;1.20;;;;;;;;;;5084969;28;20054;-70
2022/03/12 03:16:27;;;;;;;3.20;2.17;;;;;;;;;;5087795;28;20060;-70
2022/03/12 03:18:53;;;;;;;1.25;1.08;;;;;;;;;;5083666;28;20020;-70
2022/03/12 03:21:21;;;;;;;0.70;0.70;;;;;;;;;;5080142;28;20094;-70
2022/03/12 03:23:47;;;;;;;2.17;1.98;;;;;;;;;;5071696;28;20394;-70
2022/03/12 03:26:20;;;;;;;3.03;1.48;;;;;;;;;;5084169;28;20032;-70
2022/03/12 03:28:46;;;;;;;2.13;1.05;;;;;;;;;;5088826;28;20032;-70
2022/03/12 03:31:12;;;;;;;0.68;0.68;;;;;;;;;;5081043;28;20031;-70
2022/03/12 03:33:38;;;;;;;0.43;0.43;;;;;;;;;;5077460;28;20013;-70
2022/03/12 03:36:04;;;;;;;1.60;0.43;;;;;;;;;;5079523;28;20401;-70
2022/03/12 03:38:30;;;;;;;1.48;1.38;;;;;;;;;;5085740;28;20112;-70
2022/03/12 03:40:56;;;;;;;0.98;0.98;;;;;;;;;;5084421;28;20036;-69
2022/03/12 03:43:23;;;;;;;2.63;2.03;;;;;;;;;;5077350;28;20139;-69
2022/03/12 03:45:51;;;;;;;0.63;0.63;;;;;;;;;;5082055;28;20024;-69
2022/03/12 03:48:18;;;;;;;0.43;0.43;;;;;;;;;;5079380;28;20033;-69
2022/03/12 03:50:44;;;;;;;0.25;0.25;;;;;;;;;;5078783;28;20029;-69
2022/03/12 03:53:12;;;;;;;2.63;1.30;;;;;;;;;;5078045;28;20069;-69
2022/03/12 03:55:38;;;;;;;2.17;1.45;;;;;;;;;;5084262;28;20020;-70
2022/03/12 03:58:04;;;;;;;4.38;2.78;;;;;;;;;;5079708;28;20035;-69
2022/03/12 04:00:31;;;;;;;1.35;1.30;;;;;;;;;;5085329;28;20024;-69
2022/03/12 04:03:04;;;;;;;0.20;0.20;;;;;;;;;;5081043;28;20020;-70
2022/03/12 04:05:30;;;;;;;1.08;0.98;;;;;;;;;;5080484;28;20028;-68
2022/03/12 04:07:56;;;;;;;0.43;0.43;;;;;;;;;;5082661;28;20663;-69
2022/03/12 04:10:23;;;;;;;1.80;1.60;;;;;;;;;;5086610;28;20024;-69
2022/03/12 04:12:49;;;;;;;3.33;1.90;;;;;;;;;;5083144;28;20055;-69
2022/03/12 04:15:15;;;;;;;1.17;1.17;;;;;;;;;;5080852;28;20467;-68
2022/03/12 04:17:42;;;;;;;0.47;0.45;;;;;;;;;;5084294;28;20048;-69
2022/03/12 04:20:09;;;;;;;0.60;0.60;;;;;;;;;;5076360;28;20028;-70
2022/03/12 04:22:38;;;;;;;6.43;2.63;;;;;;;;;;5073527;28;20037;-69
2022/03/12 04:25:04;;;;;;;0.25;0.25;;;;;;;;;;5074862;28;20040;-69
2022/03/12 04:27:30;;;;;;;1.23;0.77;;;;;;;;;;5085035;28;20032;-69
2022/03/12 04:29:57;;;;;;;1.65;1.55;;;;;;;;;;5080299;28;20028;-69
2022/03/12 04:32:23;;;;;;;0.73;0.73;;;;;;;;;;5079445;28;20120;-69
2022/03/12 04:34:49;;;;;;;0.63;0.63;;;;;;;;;;5080574;28;20032;-69
2022/03/12 04:37:15;;;;;;;0.52;0.52;;;;;;;;;;5089086;28;20060;-69
2022/03/12 04:39:41;;;;;;;3.75;0.63;;;;;;;;;;5080274;28;20121;-69
2022/03/12 04:42:07;;;;;;;0.30;0.30;;;;;;;;;;5085298;28;20031;-69
2022/03/12 04:44:33;;;;;;;0.20;0.20;;;;;;;;;;5081259;28;20028;-69
2022/03/12 04:46:59;;;;;;;2.92;0.88;;;;;;;;;;5078901;28;20028;-69
2022/03/12 04:49:25;;;;;;;0.40;0.40;;;;;;;;;;5085347;28;20070;-69
2022/03/12 04:51:51;;;;;;;0.90;0.85;;;;;;;;;;5083994;28;20023;-69
2022/03/12 04:54:18;;;;;;;1.55;1.17;;;;;;;;;;5085944;28;20025;-69
2022/03/12 04:56:44;;;;;;;0.65;0.65;;;;;;;;;;5083523;28;20020;-69
2022/03/12 04:59:13;;;;;;;1.45;1.33;;;;;;;;;;5079755;28;20089;-69
2022/03/12 05:01:41;;;;;;;2.10;1.95;;;;;;;;;;5086843;28;20104;-70
2022/03/12 05:04:07;;;;;;;1.60;1.40;;;;;;;;;;5083641;28;20028;-70
2022/03/12 05:06:33;;;;;;;45.28;2.72;;;;;;;;;;5088581;28;20653;-70
2022/03/12 05:08:59;;;;;;;0.70;0.68;;;;;;;;;;5083683;28;20025;-70
2022/03/12 05:11:24;;;;;;;3.30;1.48;;;;;;;;;;5084282;28;20435;-70
2022/03/12 05:13:53;;;;;;;0.90;0.85;;;;;;;;;;5085915;28;20028;-70
2022/03/12 05:16:19;;;;;;;0.20;0.20;;;;;;;;;;5084841;28;20035;-70
2022/03/12 05:18:45;;;;;;;0.88;0.88;;;;;;;;;;5087820;28;20035;-71
2022/03/12 05:21:11;;;;;;;2.13;1.10;;;;;;;;;;5088100;28;20036;-70
2022/03/12 05:23:37;;;;;;;4.90;2.97;;;;;;;;;;5076435;28;20028;-70
2022/03/12 05:26:03;;;;;;;0.52;0.52;;;;;;;;;;5075119;28;20028;-70
2022/03/12 05:28:32;;;;;;;1.35;1.08;;;;;;;;;;5078970;28;20032;-70
2022/03/12 05:31:02;;;;;;;1.55;1.30;;;;;;;;;;5077986;28;20367;-70
2022/03/12 05:33:28;;;;;;;1.10;1.00;;;;;;;;;;5084094;28;20434;-70
2022/03/12 05:35:54;;;;;;;1.85;1.10;;;;;;;;;;5083959;28;20027;-70
2022/03/12 05:38:21;;;;;;;1.05;0.90;;;;;;;;;;5078428;28;20043;-70
2022/03/12 05:40:48;;;;;;;0.88;0.88;;;;;;;;;;5083145;28;20058;-70
2022/03/12 05:43:15;;;;;;;1.98;1.27;;;;;;;;;;5078297;28;20067;-70
2022/03/12 05:45:45;;;;;;;0.28;0.28;;;;;;;;;;5082203;28;20062;-70
2022/03/12 05:48:11;;;;;;;2.20;1.27;;;;;;;;;;5073820;28;20354;-70
2022/03/12 05:50:38;;;;;;;0.32;0.32;;;;;;;;;;5077092;28;20046;-70
2022/03/12 05:53:05;;;;;;;2.45;2.25;;;;;;;;;;5082542;28;20031;-70
2022/03/12 05:55:35;;;;;;;0.50;0.50;;;;;;;;;;5088834;28;20032;-70
2022/03/12 05:58:01;;;;;;;8.23;1.95;;;;;;;;;;5080195;28;20028;-71
2022/03/12 06:00:27;;;;;;;2.28;1.52;;;;;;;;;;5080047;28;20040;-77
2022/03/12 06:02:54;;;;;;;0.50;0.50;;;;;;;;;;5083646;28;20023;-70
2022/03/12 06:05:21;;;;;;;2.90;1.55;;;;;;;;;;5077707;28;20506;-70
2022/03/12 06:07:47;;;;;;;0.60;0.52;;;;;;;;;;5084875;28;20039;-70
2022/03/12 06:10:15;;;;;;;4.60;1.73;;;;;;;;;;5081310;28;20044;-70
2022/03/12 06:12:43;;;;;;;2.38;2.17;;;;;;;;;;5078253;28;20028;-70
2022/03/12 06:15:13;;;;;;;1.27;1.17;;;;;;;;;;5080607;28;20035;-69
2022/03/12 06:17:39;;;;;;;1.15;1.08;;;;;;;;;;5083597;28;20032;-70
2022/03/12 06:20:06;;;;;;;0.30;0.30;;;;;;;;;;5080166;28;20398;-69
2022/03/12 06:22:32;;;;;;;1.10;0.95;;;;;;;;;;5086970;28;20028;-70
2022/03/12 06:24:58;;;;;;;5.93;0.93;;;;;;;;;;5083239;28;20027;-72
2022/03/12 06:27:24;;;;;;;7.20;2.38;;;;;;;;;;5078534;28;20028;-70
2022/03/12 06:29:50;;;;;;;0.32;0.32;;;;;;;;;;5078382;28;20028;-70
2022/03/12 06:32:15;;;;;;;0.63;0.63;;;;;;;;;;5075814;28;20099;-70
2022/03/12 06:34:42;;;;;;;1.17;1.10;;;;;;;;;;5074189;28;20431;-70
2022/03/12 06:37:09;;;;;;;1.33;0.93;;;;;;;;;;5076350;28;20055;-70
2022/03/12 06:39:35;;;;;;;5.03;2.88;;;;;;;;;;5074246;28;20031;-70
2022/03/12 06:42:02;;;;;;;0.55;0.55;;;;;;;;;;5082783;28;20073;-70
2022/03/12 06:44:32;;;;;;;0.55;0.52;;;;;;;;;;5078565;28;20063;-70
2022/03/12 06:46:58;;;;;;;1.53;1.43;;;;;;;;;;5081840;28;20032;-71
2022/03/12 06:49:24;;;;;;;1.02;0.45;;;;;;;;;;5079950;28;20063;-70
2022/03/12 06:51:50;;;;;;;2.70;2.00;;;;;;;;;;5077564;28;20025;-69
2022/03/12 06:54:16;;;;;;;0.40;0.40;;;;;;;;;;5074879;28;20073;-68
2022/03/12 06:56:42;;;;;;;1.13;1.05;;;;;;;;;;5076044;28;20040;-68
2022/03/12 06:59:08;;;;;;;2.63;1.63;;;;;;;;;;5078425;28;20066;-69
2022/03/12 07:01:34;;;;;;;3.75;2.70;;;;;;;;;;5079502;28;20036;-69
2022/03/12 07:04:00;;;;;;;2.00;1.40;;;;;;;;;;5073346;28;20024;-69
2022/03/12 07:06:26;;;;;;;9.63;2.45;;;;;;;;;;5079329;28;20048;-68
2022/03/12 07:08:52;;;;;;;2.40;1.70;;;;;;;;;;5072076;28;20032;-68
2022/03/12 07:11:18;;;;;;;0.73;0.73;;;;;;;;;;5079646;28;20085;-68
2022/03/12 07:13:44;;;;;;;1.08;1.00;;;;;;;;;;5078704;28;20112;-68
2022/03/12 07:16:10;;;;;;;0.38;0.30;;;;;;;;;;5079109;28;20115;-69
2022/03/12 07:18:38;;;;;;;1.98;1.13;;;;;;;;;;5079035;28;20124;-69
2022/03/12 07:21:04;;;;;;;1.40;1.05;;;;;;;;;;5075214;28;20510;-71
2022/03/12 07:23:30;;;;;;;0.95;0.95;;;;;;;;;;5073025;28;20442;-69
2022/03/12 07:25:56;;;;;;;1.25;0.60;;;;;;;;;;5074970;28;20116;-69
2022/03/12 07:28:22;;;;;;;7.68;1.80;;;;;;;;;;5078395;28;20027;-68
2022/03/12 07:30:48;;;;;;;0.30;0.30;;;;;;;;;;5078834;28;20020;-73
2022/03/12 07:33:15;;;;;;;5.38;1.75;;;;;;;;;;5079903;28;20032;-70
2022/03/12 07:35:41;;;;;;;2.20;1.55;;;;;;;;;;5077993;28;20035;-70
2022/03/12 07:38:13;;;;;;;0.88;0.85;;;;;;;;;;5074701;28;20035;-70
2022/03/12 07:40:40;;;;;;;4.07;0.73;;;;;;;;;;5071512;28;20020;-69
2022/03/12 07:43:06;;;;;;;1.92;1.20;;;;;;;;;;5074045;28;20536;-69
2022/03/12 07:45:32;;;;;;;1.05;0.50;;;;;;;;;;5086328;28;20040;-70
2022/03/12 07:47:58;;;;;;;0.30;0.30;;;;;;;;;;5078836;28;20032;-69
2022/03/12 07:50:26;;;;;;;13.35;1.52;;;;;;;;;;5076032;28;20482;-70
2022/03/12 07:52:52;;;;;;;0.57;0.57;;;;;;;;;;5076216;28;20074;-70
2022/03/12 07:55:18;;;;;;;2.92;1.05;;;;;;;;;;5072099;28;20025;-71
2022/03/12 07:57:45;;;;;;;1.58;0.90;;;;;;;;;;5072459;28;20020;-71
2022/03/12 08:00:12;;;;;;;2.92;1.48;;;;;;;;;;5077539;28;20554;-71
2022/03/12 08:02:38;;;;;;;0.60;0.47;;;;;;;;;;5080221;28;20473;-71
2022/03/12 08:05:05;;;;;;;0.50;0.50;;;;;;;;;;5075110;28;20028;-71
2022/03/12 08:07:32;;;;;;;1.65;1.55;;;;;;;;;;5077154;28;20044;-71
2022/03/12 08:09:59;;;;;;;8.55;3.10;;;;;;;;;;5074585;28;20096;-71
2022/03/12 08:12:31;;;;;;;3.30;1.20;;;;;;;;;;5075571;28;20397;-72
2022/03/12 08:14:58;;;;;;;0.85;0.85;;;;;;;;;;5074654;28;20040;-70
2022/03/12 08:17:24;;;;;;;1.95;1.85;;;;;;;;;;5085458;28;20085;-71
2022/03/12 08:19:50;;;;;;;6.60;2.15;;;;;;;;;;5076895;28;20525;-71
2022/03/12 08:22:17;;;;;;;0.57;0.57;;;;;;;;;;5076347;28;20033;-71
2022/03/12 08:24:43;;;;;;;0.20;0.20;;;;;;;;;;5073065;28;20062;-70
2022/03/12 08:27:09;;;;;;;0.45;0.40;;;;;;;;;;5082205;28;20285;-73
2022/03/12 08:29:35;;;;;;;0.73;0.73;;;;;;;;;;5071415;28;20031;-70
2022/03/12 08:32:01;;;;;;;1.33;1.23;;;;;;;;;;5072336;28;20375;-73
2022/03/12 08:34:27;;;;;;;0.73;0.73;;;;;;;;;;5078166;28;20479;-71
2022/03/12 08:36:53;;;;;;;0.10;0.10;;;;;;;;;;5073613;28;20102;-74
2022/03/12 08:39:19;;;;;;;1.38;1.27;;;;;;;;;;5074070;28;20040;-71
2022/03/12 08:41:46;;;;;;;1.90;1.02;;;;;;;;;;5081816;28;20024;-70
2022/03/12 08:44:12;;;;;;;1.05;1.05;;;;;;;;;;5083587;28;20043;-71
2022/03/12 08:46:38;;;;;;;0.90;0.90;;;;;;;;;;5077414;28;20028;-71
2022/03/12 08:49:04;;;;;;;2.78;1.70;;;;;;;;;;5078314;28;20032;-71
2022/03/12 08:51:31;;;;;;;0.60;0.60;;;;;;;;;;5074979;28;20179;-70
2022/03/12 08:53:56;;;;;;;0.32;0.32;;;;;;;;;;5085802;28;20028;-71
2022/03/12 08:56:23;;;;;;;1.45;1.33;;;;;;;;;;5077374;28;20360;-70
2022/03/12 08:58:48;;;;;;;0.80;0.80;;;;;;;;;;5077936;28;20028;-71
2022/03/12 09:01:16;;;;;;;0.55;0.55;;;;;;;;;;5079225;28;20479;-70
2022/03/12 09:03:43;;;;;;;1.38;1.17;;;;;;;;;;5086484;28;20431;-70
2022/03/12 09:06:10;;;;;;;0.52;0.52;;;;;;;;;;5084860;28;20079;-70
2022/03/12 09:08:36;;;;;;;1.58;0.85;;;;;;;;;;5077205;28;20513;-70
2022/03/12 09:11:02;;;;;;;0.30;0.30;;;;;;;;;;5085787;28;20025;-72
2022/03/12 09:13:28;;;;;;;2.92;2.03;;;;;;;;;;5074320;28;20475;-70
2022/03/12 09:15:54;;;;;;;0.70;0.70;;;;;;;;;;5077535;28;20132;-71
2022/03/12 09:18:20;;;;;;;1.50;1.30;;;;;;;;;;5081461;28;20042;-72
2022/03/12 09:20:47;;;;;;;1.60;1.50;;;;;;;;;;5079061;28;20477;-71
2022/03/12 09:23:17;;;;;;;0.60;0.60;;;;;;;;;;5071981;28;20178;-72
2022/03/12 09:25:44;;;;;;;0.30;0.30;;;;;;;;;;5081032;28;20280;-70
2022/03/12 09:28:10;;;;;;;0.40;0.40;;;;;;;;;;5083261;28;20490;-70
2022/03/12 09:30:36;;;;;;;0.85;0.75;;;;;;;;;;5076507;28;20127;-71
2022/03/12 09:33:03;;;;;;;2.08;1.00;;;;;;;;;;5079546;28;20119;-70
2022/03/12 09:35:29;;;;;;;1.17;1.10;;;;;;;;;;5083777;28;20478;-70
2022/03/12 09:37:55;;;;;;;1.25;0.90;;;;;;;;;;5077504;28;20024;-72
2022/03/12 09:40:22;;;;;;;1.17;0.88;;;;;;;;;;5077248;28;20078;-71
2022/03/12 09:42:48;;;;;;;1.48;1.38;;;;;;;;;;5078036;28;20103;-70
2022/03/12 09:45:14;;;;;;;1.55;1.45;;;;;;;;;;5076390;28;20502;-74
2022/03/12 09:47:41;;;;;;;0.20;0.20;;;;;;;;;;5075345;28;20036;-71
2022/03/12 09:50:07;;;;;;;2.17;0.82;;;;;;;;;;5083732;28;20038;-70
2022/03/12 09:52:33;;;;;;;2.30;1.20;;;;;;;;;;5075783;28;20116;-73
2022/03/12 09:54:59;;;;;;;2.40;1.48;;;;;;;;;;5079816;28;20474;-74
2022/03/12 09:57:26;;;;;;;0.65;0.55;;;;;;;;;;5076903;28;20028;-75
2022/03/12 09:59:52;;;;;;;0.52;0.52;;;;;;;;;;5083671;28;20052;-75
2022/03/12 10:02:19;;;;;;;3.60;0.60;;;;;;;;;;5072726;28;20051;-73
2022/03/12 10:04:45;;;;;;;0.57;0.50;;;;;;;;;;5090182;28;20424;-74
2022/03/12 10:07:11;;;;;;;5.25;1.35;;;;;;;;;;5082182;28;20070;-75
2022/03/12 10:09:37;;;;;;;1.55;0.98;;;;;;;;;;5081515;28;20386;-73
2022/03/12 10:12:05;;;;;;;1.25;1.10;;;;;;;;;;5082086;28;20082;-74
2022/03/12 10:14:31;;;;;;;3.45;1.33;;;;;;;;;;5082470;28;20024;-78
2022/03/12 10:17:00;;;;;;;9.57;3.05;;;;;;;;;;5075637;28;20047;-73
2022/03/12 10:19:26;;;;;;;1.08;1.00;;;;;;;;;;5083674;28;20024;-74
2022/03/12 10:21:54;;;;;;;0.40;0.20;;;;;;;;;;5074867;28;20036;-74
2022/03/12 10:24:20;;;;;;;5.68;1.55;;;;;;;;;;5081548;28;20025;-74
2022/03/12 10:26:46;;;;;;;4.10;1.13;;;;;;;;;;5074854;28;20036;-75
2022/03/12 10:29:12;;;;;;;1.27;0.90;;;;;;;;;;5078262;28;20031;-74
2022/03/12 10:31:38;;;;;;;1.15;1.10;;;;;;;;;;5083456;28;20023;-73
2022/03/12 10:34:14;;;;;;;0.55;0.43;;;;;;;;;;5082670;28;20020;-74
2022/03/12 10:36:40;;;;;;;4.43;1.77;;;;;;;;;;5071252;28;20027;-74
2022/03/12 10:39:06;;;;;;;0.90;0.90;;;;;;;;;;5073548;28;20093;-82
2022/03/12 10:41:32;;;;;;;0.30;0.30;;;;;;;;;;5079252;28;20490;-72
2022/03/12 10:43:58;;;;;;;0.10;0.10;;;;;;;;;;5079048;28;20387;-73
2022/03/12 10:46:27;;;;;;;0.77;0.77;;;;;;;;;;5083242;28;20154;-74
2022/03/12 10:48:56;;;;;;;0.55;0.50;;;;;;;;;;5074765;28;20115;-76
2022/03/12 10:51:25;;;;;;;0.43;0.43;;;;;;;;;;5086074;28;20024;-74
2022/03/12 10:53:51;;;;;;;2.95;1.33;;;;;;;;;;5083923;28;20167;-74
2022/03/12 10:56:18;;;;;;;1.63;1.30;;;;;;;;;;5076756;28;20099;-74
2022/03/12 10:58:44;;;;;;;0.65;0.65;;;;;;;;;;5086427;28;20047;-73
2022/03/12 11:01:10;;;;;;;0.80;0.32;;;;;;;;;;5074890;28;20402;-75
2022/03/12 11:03:37;;;;;;;0.80;0.73;;;;;;;;;;5075515;28;20039;-74
2022/03/12 11:06:05;;;;;;;0.93;0.85;;;;;;;;;;5075973;28;20040;-75
2022/03/12 11:08:31;;;;;;;0.50;0.50;;;;;;;;;;5081574;28;20038;-73
2022/03/12 11:10:58;;;;;;;2.10;0.68;;;;;;;;;;5081283;28;20028;-73
2022/03/12 11:13:43;;;;;;;0.47;0.47;;;;;;;;;;5075237;28;21005;-75
2022/03/12 11:16:14;;;;;;;0.40;0.40;;;;;;;;;;5079714;28;20032;-74
2022/03/12 11:18:54;;;;;;;1.42;1.10;;;;;;;;;;5079774;28;20031;-74
2022/03/12 11:21:32;;;;;;;0.82;0.82;;;;;;;;;;5081548;28;20042;-74
2022/03/12 11:23:59;;;;;;;2.67;1.52;;;;;;;;;;5077163;28;20036;-74
2022/03/12 11:26:25;;;;;;;1.95;1.85;;;;;;;;;;5078011;28;20034;-73
2022/03/12 11:28:59;;;;;;;0.38;0.38;;;;;;;;;;5076815;28;20036;-73
2022/03/12 11:31:43;;;;;;;0.10;0.10;;;;;;;;;;5078030;28;20031;-75
2022/03/12 11:34:20;;;;;;;0.65;0.65;;;;;;;;;;5072191;28;20016;-73
2022/03/12 11:36:57;;;;;;;0.82;0.70;;;;;;;;;;5078612;28;20028;-73
2022/03/12 11:39:31;;;;;;;0.45;0.45;;;;;;;;;;5073744;28;20060;-73
2022/03/12 11:42:03;;;;;;;0.25;0.25;;;;;;;;;;5076871;28;20081;-73
2022/03/12 11:44:32;;;;;;;3.83;0.68;;;;;;;;;;5081012;28;20043;-73
2022/03/12 11:46:59;;;;;;;0.17;0.17;;;;;;;;;;5075297;28;20032;-73
2022/03/12 11:49:25;;;;;;;0.35;0.35;;;;;;;;;;5073447;28;20043;-73
2022/03/12 11:51:52;;;;;;;2.03;1.40;;;;;;;;;;5078386;28;20546;-72
2022/03/12 11:54:18;;;;;;;3.72;1.38;;;;;;;;;;5080654;28;20115;-73
2022/03/12 11:56:44;;;;;;;0.22;0.17;;;;;;;;;;5081045;28;20036;-72
2022/03/12 11:59:10;;;;;;;1.05;0.45;;;;;;;;;;5077384;28;20028;-73
2022/03/12 12:01:37;;;;;;;1.08;1.00;;;;;;;;;;5087213;28;20077;-72
2022/03/12 12:04:04;;;;;;;0.20;0.20;;;;;;;;;;5077261;28;20480;-73
2022/03/12 12:06:30;;;;;;;2.00;1.10;;;;;;;;;;5074034;28;20045;-73
2022/03/12 12:08:57;;;;;;;0.80;0.55;;;;;;;;;;5084084;28;20121;-74
2022/03/12 12:11:23;;;;;;;1.45;0.95;;;;;;;;;;5074306;28;20051;-73
2022/03/12 12:13:49;;;;;;;0.20;0.20;;;;;;;;;;5080200;28;20373;-73
2022/03/12 12:16:18;;;;;;;1.13;0.88;;;;;;;;;;5091414;28;20032;-74
2022/03/12 12:18:45;;;;;;;1.75;1.25;;;;;;;;;;5081158;28;20122;-71
2022/03/12 12:21:14;;;;;;;0.10;0.10;;;;;;;;;;5083939;28;20028;-72
2022/03/12 12:23:40;;;;;;;0.35;0.35;;;;;;;;;;5079106;28;20032;-77
2022/03/12 12:26:08;;;;;;;0.90;0.55;;;;;;;;;;5079370;28;20037;-78
2022/03/12 12:28:45;;;;;;;0.47;0.47;;;;;;;;;;5085782;28;20140;-74
2022/03/12 12:31:14;;;;;;;1.65;0.75;;;;;;;;;;5077744;28;20073;-74
2022/03/12 12:33:42;;;;;;;1.48;0.85;;;;;;;;;;5081936;28;20467;-76
2022/03/12 12:36:08;;;;;;;2.13;1.20;;;;;;;;;;5078765;28;20399;-74
2022/03/12 12:38:34;;;;;;;1.38;0.35;;;;;;;;;;5082933;28;20031;-74
2022/03/12 12:41:03;;;;;;;0.32;0.32;;;;;;;;;;5083136;28;20027;-74
2022/03/12 12:43:34;;;;;;;4.03;0.57;;;;;;;;;;5081777;28;20085;-74
2022/03/12 12:46:08;;;;;;;1.55;0.63;;;;;;;;;;5080126;28;20027;-75
2022/03/12 12:48:38;;;;;;;2.53;0.70;;;;;;;;;;5086702;28;20116;-75
2022/03/12 12:51:13;;;;;;;0.73;0.73;;;;;;;;;;5083976;28;20047;-74
2022/03/12 12:53:40;;;;;;;0.90;0.60;;;;;;;;;;5080638;28;20020;-74
2022/03/12 12:56:24;;;;;;;1.55;1.13;;;;;;;;;;5082248;28;20032;-74
2022/03/12 12:58:53;;;;;;;0.93;0.45;;;;;;;;;;5080916;28;20020;-72
2022/03/12 13:01:21;;;;;;;3.05;0.98;;;;;;;;;;5075575;28;20035;-73
2022/03/12 13:03:51;;;;;;;0.30;0.30;;;;;;;;;;5087140;28;20029;-73
2022/03/12 13:06:39;;;;;;;0.70;0.70;;;;;;;;;;5076060;28;20044;-71
2022/03/12 13:09:25;;;;;;;2.30;0.85;;;;;;;;;;5081380;28;20286;-73
2022/03/12 13:11:57;;;;;;;0.65;0.60;;;;;;;;;;5040358;28;20037;-74
2022/03/12 13:14:24;;;;;;;1.55;0.95;;;;;;;;;;5078442;28;20020;-72
2022/03/12 13:16:51;;;;;;;0.98;0.88;;;;;;;;;;5076479;28;20039;-74
2022/03/12 13:19:33;;;;;;;0.93;0.82;;;;;;;;;;5074173;28;20039;-73
2022/03/12 13:22:06;;;;;;;2.13;0.45;;;;;;;;;;5077404;28;20141;-73
2022/03/12 13:24:52;;;;;;;0.50;0.50;;;;;;;;;;5081836;28;20044;-73
2022/03/12 13:27:25;;;;;;;0.57;0.57;;;;;;;;;;5074055;28;20024;-72
2022/03/12 13:30:09;;;;;;;1.73;1.58;;;;;;;;;;5080163;28;20032;-73
2022/03/12 13:32:35;;;;;;;3.30;0.93;;;;;;;;;;5078607;28;20047;-73
2022/03/12 13:35:02;;;;;;;1.50;0.57;;;;;;;;;;5075032;28;20016;-73
2022/03/12 13:37:28;;;;;;;0.52;0.52;;;;;;;;;;5080440;28;20433;-72
2022/03/12 13:40:04;;;;;;;1.23;0.73;;;;;;;;;;5078617;28;20043;-73
2022/03/12 13:42:30;;;;;;;1.50;1.08;;;;;;;;;;5076528;28;20016;-71
2022/03/12 13:44:56;;;;;;;4.57;0.85;;;;;;;;;;5083969;28;20043;-73
2022/03/12 13:47:23;;;;;;;2.15;1.13;;;;;;;;;;5086261;28;20531;-73
2022/03/12 13:49:50;;;;;;;2.25;0.75;;;;;;;;;;5076537;28;20090;-73
2022/03/12 13:52:17;;;;;;;16.30;1.35;;;;;;;;;;5079369;28;20066;-72
2022/03/12 13:54:44;;;;;;;0.80;0.80;;;;;;;;;;5077669;28;20024;-73
2022/03/12 13:57:09;;;;;;;3.30;0.75;;;;;;;;;;5084647;28;20027;-72
2022/03/12 13:59:36;;;;;;;0.90;0.63;;;;;;;;;;5079937;28;20036;-72
2022/03/12 14:02:03;;;;;;;1.30;1.20;;;;;;;;;;5078720;28;20123;-72
2022/03/12 14:04:32;;;;;;;0.68;0.68;;;;;;;;;;5077391;28;20036;-73
2022/03/12 14:06:58;;;;;;;0.80;0.80;;;;;;;;;;5078793;28;20045;-72
2022/03/12 14:09:26;;;;;;;0.60;0.60;;;;;;;;;;5082046;28;20115;-72
2022/03/12 14:11:56;;;;;;;0.60;0.60;;;;;;;;;;5065733;28;20020;-72
2022/03/12 14:14:23;;;;;;;3.88;1.13;;;;;;;;;;5074977;28;20534;-73
2022/03/12 14:16:53;;;;;;;2.00;0.95;;;;;;;;;;5070173;28;20509;-73
2022/03/12 14:19:20;;;;;;;1.43;0.80;;;;;;;;;;5075275;28;20024;-76
2022/03/12 14:21:48;;;;;;;0.55;0.55;;;;;;;;;;5074378;28;20848;-73
2022/03/12 14:24:15;;;;;;;0.70;0.70;;;;;;;;;;5077663;28;20032;-74
2022/03/12 14:26:51;;;;;;;2.47;1.38;;;;;;;;;;5083346;28;20055;-74
2022/03/12 14:29:18;;;;;;;0.60;0.60;;;;;;;;;;5081281;28;20115;-74
2022/03/12 14:31:45;;;;;;;1.60;1.08;;;;;;;;;;5078570;28;20422;-74
2022/03/12 14:34:12;;;;;;;1.33;1.02;;;;;;;;;;5078746;28;20097;-74
2022/03/12 14:36:40;;;;;;;0.98;0.70;;;;;;;;;;5083935;28;20502;-74
2022/03/12 14:39:06;;;;;;;8.45;1.52;;;;;;;;;;5078768;28;20044;-74
2022/03/12 14:41:32;;;;;;;3.40;0.73;;;;;;;;;;5077694;28;20108;-73
2022/03/12 14:43:58;;;;;;;0.85;0.70;;;;;;;;;;5076925;28;20028;-73